sensor_id;sensor_type;location;lat;lon;timestamp;pressure;altitude;pressure_sealevel;temperature;humidity
28167;BME280;15455;53.376;-6.262;2023-10-08T00:00:32;101909.25;;;13.98;100.00
28167;BME280;15455;53.376;-6.262;2023-10-08T00:03:37;101923.25;;;13.86;100.00
28167;BME280;15455;53.376;-6.262;2023-10-08T00:06:23;101924.94;;;13.76;100.00
28167;BME280;15455;53.376;-6.262;2023-10-08T00:09:09;101938.94;;;13.72;100.00
28167;BME280;15455;53.376;-6.262;2023-10-08T00:11:56;101940.66;;;13.64;100.00
28167;BME280;15455;53.376;-6.262;2023-10-08T00:14:42;101945.91;;;13.59;100.00
28167;BME280;15455;53.376;-6.262;2023-10-08T00:17:31;101949.38;;;13.60;100.00
28167;BME280;15455;53.376;-6.262;2023-10-08T00:20:17;101965.13;;;13.60;100.00
28167;BME280;15455;53.376;-6.262;2023-10-08T00:23:11;101967.75;;;13.63;100.00
28167;BME280;15455;53.376;-6.262;2023-10-08T00:25:57;101986.13;;;13.66;100.00
28167;BME280;15455;53.376;-6.262;2023-10-08T00:28:49;101983.53;;;13.73;100.00
28167;BME280;15455;53.376;-6.262;2023-10-08T00:31:37;102001.03;;;13.75;100.00
28167;BME280;15455;53.376;-6.262;2023-10-08T00:34:26;101999.31;;;13.75;100.00
28167;BME280;15455;53.376;-6.262;2023-10-08T00:37:13;102001.94;;;13.75;100.00
28167;BME280;15455;53.376;-6.262;2023-10-08T00:40:02;101994.03;;;13.73;100.00
28167;BME280;15455;53.376;-6.262;2023-10-08T00:42:56;102002.78;;;13.74;100.00
28167;BME280;15455;53.376;-6.262;2023-10-08T00:45:42;102006.28;;;13.73;100.00
28167;BME280;15455;53.376;-6.262;2023-10-08T00:48:29;102008.91;;;13.78;100.00
28167;BME280;15455;53.376;-6.262;2023-10-08T00:51:25;102003.69;;;13.79;100.00
28167;BME280;15455;53.376;-6.262;2023-10-08T00:54:26;102001.97;;;13.89;100.00
28167;BME280;15455;53.376;-6.262;2023-10-08T00:57:20;102004.66;;;14.04;100.00
28167;BME280;15455;53.376;-6.262;2023-10-08T01:00:07;101998.56;;;14.05;100.00
28167;BME280;15455;53.376;-6.262;2023-10-08T01:03:01;101981.03;;;14.04;100.00
28167;BME280;15455;53.376;-6.262;2023-10-08T01:05:48;101988.91;;;14.03;100.00
28167;BME280;15455;53.376;-6.262;2023-10-08T01:08:34;101994.16;;;13.98;100.00
28167;BME280;15455;53.376;-6.262;2023-10-08T01:11:24;101986.22;;;13.84;100.00
28167;BME280;15455;53.376;-6.262;2023-10-08T01:14:29;101984.41;;;13.69;100.00
28167;BME280;15455;53.376;-6.262;2023-10-08T01:17:18;101986.09;;;13.58;100.00
28167;BME280;15455;53.376;-6.262;2023-10-08T01:20:05;101985.16;;;13.47;100.00
28167;BME280;15455;53.376;-6.262;2023-10-08T01:23:07;101983.31;;;13.32;100.00
28167;BME280;15455;53.376;-6.262;2023-10-08T01:25:58;101977.13;;;13.19;100.00
28167;BME280;15455;53.376;-6.262;2023-10-08T01:28:56;101970.94;;;13.11;100.00
28167;BME280;15455;53.376;-6.262;2023-10-08T01:31:41;101977.06;;;13.13;100.00
28167;BME280;15455;53.376;-6.262;2023-10-08T01:34:27;101976.19;;;13.12;100.00
28167;BME280;15455;53.376;-6.262;2023-10-08T01:37:17;101977.94;;;13.13;100.00
28167;BME280;15455;53.376;-6.262;2023-10-08T01:40:03;101980.56;;;13.10;100.00
28167;BME280;15455;53.376;-6.262;2023-10-08T01:42:56;101985.78;;;13.07;100.00
28167;BME280;15455;53.376;-6.262;2023-10-08T01:45:51;101982.25;;;13.05;100.00
28167;BME280;15455;53.376;-6.262;2023-10-08T01:48:37;101983.09;;;13.02;100.00
28167;BME280;15455;53.376;-6.262;2023-10-08T01:51:24;101988.31;;;13.01;100.00
28167;BME280;15455;53.376;-6.262;2023-10-08T01:54:11;101985.72;;;13.04;100.00
28167;BME280;15455;53.376;-6.262;2023-10-08T01:56:57;101986.59;;;13.01;100.00
28167;BME280;15455;53.376;-6.262;2023-10-08T01:59:43;101992.69;;;12.99;100.00
28167;BME280;15455;53.376;-6.262;2023-10-08T02:02:29;101995.31;;;12.97;100.00
28167;BME280;15455;53.376;-6.262;2023-10-08T02:05:16;101983.91;;;12.95;100.00
28167;BME280;15455;53.376;-6.262;2023-10-08T02:08:04;101979.56;;;12.93;100.00
28167;BME280;15455;53.376;-6.262;2023-10-08T02:10:52;101981.28;;;12.91;100.00
28167;BME280;15455;53.376;-6.262;2023-10-08T02:13:38;101983.88;;;12.91;100.00
28167;BME280;15455;53.376;-6.262;2023-10-08T02:16:23;101983.00;;;12.89;100.00
28167;BME280;15455;53.376;-6.262;2023-10-08T02:19:09;101973.38;;;12.84;100.00
28167;BME280;15455;53.376;-6.262;2023-10-08T02:21:57;101973.34;;;12.81;100.00
28167;BME280;15455;53.376;-6.262;2023-10-08T02:24:43;101967.19;;;12.79;100.00
28167;BME280;15455;53.376;-6.262;2023-10-08T02:27:28;101983.75;;;12.75;100.00
28167;BME280;15455;53.376;-6.262;2023-10-08T02:30:14;102002.06;;;12.71;100.00
28167;BME280;15455;53.376;-6.262;2023-10-08T02:32:59;102006.50;;;12.79;100.00
28167;BME280;15455;53.376;-6.262;2023-10-08T02:35:46;102000.47;;;12.88;100.00
28167;BME280;15455;53.376;-6.262;2023-10-08T02:38:32;101993.47;;;12.85;100.00
28167;BME280;15455;53.376;-6.262;2023-10-08T02:41:25;102009.94;;;12.75;100.00
28167;BME280;15455;53.376;-6.262;2023-10-08T02:44:10;102005.59;;;12.74;100.00
28167;BME280;15455;53.376;-6.262;2023-10-08T02:46:58;102006.50;;;12.79;100.00
28167;BME280;15455;53.376;-6.262;2023-10-08T02:49:44;102009.19;;;12.85;100.00
28167;BME280;15455;53.376;-6.262;2023-10-08T02:52:30;102008.31;;;12.90;100.00
28167;BME280;15455;53.376;-6.262;2023-10-08T02:55:16;101996.09;;;12.87;100.00
28167;BME280;15455;53.376;-6.262;2023-10-08T02:58:19;101998.66;;;12.81;100.00
28167;BME280;15455;53.376;-6.262;2023-10-08T03:01:06;101995.16;;;12.77;100.00
28167;BME280;15455;53.376;-6.262;2023-10-08T03:03:52;101988.97;;;12.72;100.00
28167;BME280;15455;53.376;-6.262;2023-10-08T03:06:49;101982.84;;;12.67;100.00
28167;BME280;15455;53.376;-6.262;2023-10-08T03:09:35;101971.44;;;12.62;100.00
28167;BME280;15455;53.376;-6.262;2023-10-08T03:12:25;101968.72;;;12.51;100.00
28167;BME280;15455;53.376;-6.262;2023-10-08T03:15:11;101962.47;;;12.35;100.00
28167;BME280;15455;53.376;-6.262;2023-10-08T03:18:00;101955.34;;;12.22;100.00
28167;BME280;15455;53.376;-6.262;2023-10-08T03:20:55;101956.94;;;12.09;100.00
28167;BME280;15455;53.376;-6.262;2023-10-08T03:23:49;101948.16;;;12.01;100.00
28167;BME280;15455;53.376;-6.262;2023-10-08T03:26:35;101954.19;;;11.93;100.00
28167;BME280;15455;53.376;-6.262;2023-10-08T03:29:24;101957.53;;;11.85;100.00
28167;BME280;15455;53.376;-6.262;2023-10-08T03:32:16;101957.50;;;11.81;100.00
28167;BME280;15455;53.376;-6.262;2023-10-08T03:35:03;101950.50;;;11.80;100.00
28167;BME280;15455;53.376;-6.262;2023-10-08T03:37:49;101934.84;;;11.84;100.00
28167;BME280;15455;53.376;-6.262;2023-10-08T03:40:36;101935.63;;;11.75;100.00
28167;BME280;15455;53.376;-6.262;2023-10-08T03:43:34;101955.72;;;11.80;100.00
28167;BME280;15455;53.376;-6.262;2023-10-08T03:46:20;101952.22;;;11.78;100.00
28167;BME280;15455;53.376;-6.262;2023-10-08T03:49:12;101949.53;;;11.74;100.00
28167;BME280;15455;53.376;-6.262;2023-10-08T03:52:10;101958.22;;;11.71;100.00
28167;BME280;15455;53.376;-6.262;2023-10-08T03:54:56;101948.66;;;11.70;100.00
28167;BME280;15455;53.376;-6.262;2023-10-08T03:57:58;101955.56;;;11.67;100.00
28167;BME280;15455;53.376;-6.262;2023-10-08T04:00:44;101948.63;;;11.69;100.00
28167;BME280;15455;53.376;-6.262;2023-10-08T04:03:31;101940.84;;;11.73;100.00
28167;BME280;15455;53.376;-6.262;2023-10-08T04:06:36;101922.41;;;11.64;100.00
28167;BME280;15455;53.376;-6.262;2023-10-08T04:09:32;101914.41;;;11.52;100.00
28167;BME280;15455;53.376;-6.262;2023-10-08T04:12:19;101917.00;;;11.49;100.00
28167;BME280;15455;53.376;-6.262;2023-10-08T04:15:06;101926.63;;;11.53;100.00
28167;BME280;15455;53.376;-6.262;2023-10-08T04:17:55;101922.22;;;11.47;100.00
28167;BME280;15455;53.376;-6.262;2023-10-08T04:20:42;101923.06;;;11.46;100.00
28167;BME280;15455;53.376;-6.262;2023-10-08T04:23:50;101920.28;;;11.35;100.00
28167;BME280;15455;53.376;-6.262;2023-10-08T04:26:36;101927.22;;;11.30;100.00
28167;BME280;15455;53.376;-6.262;2023-10-08T04:29:25;101929.69;;;11.21;100.00
28167;BME280;15455;53.376;-6.262;2023-10-08T04:32:12;101933.97;;;11.16;100.00
28167;BME280;15455;53.376;-6.262;2023-10-08T04:34:58;101932.22;;;11.15;100.00
28167;BME280;15455;53.376;-6.262;2023-10-08T04:37:43;101920.91;;;11.16;100.00
28167;BME280;15455;53.376;-6.262;2023-10-08T04:40:29;101917.50;;;11.20;100.00
28167;BME280;15455;53.376;-6.262;2023-10-08T04:43:21;101928.03;;;11.26;100.00
28167;BME280;15455;53.376;-6.262;2023-10-08T04:46:16;101939.53;;;11.40;100.00
28167;BME280;15455;53.376;-6.262;2023-10-08T04:49:07;101929.91;;;11.38;100.00
28167;BME280;15455;53.376;-6.262;2023-10-08T04:52:07;101929.06;;;11.39;100.00
28167;BME280;15455;53.376;-6.262;2023-10-08T04:55:04;101930.81;;;11.38;100.00
28167;BME280;15455;53.376;-6.262;2023-10-08T04:58:00;101940.41;;;11.42;100.00
28167;BME280;15455;53.376;-6.262;2023-10-08T05:00:50;101947.56;;;11.53;100.00
28167;BME280;15455;53.376;-6.262;2023-10-08T05:03:39;101956.34;;;11.61;100.00
28167;BME280;15455;53.376;-6.262;2023-10-08T05:06:39;101963.41;;;11.67;100.00
28167;BME280;15455;53.376;-6.262;2023-10-08T05:09:35;101955.56;;;11.67;100.00
28167;BME280;15455;53.376;-6.262;2023-10-08T05:12:44;101944.28;;;11.71;100.00
28167;BME280;15455;53.376;-6.262;2023-10-08T05:15:36;101961.56;;;11.59;100.00
28167;BME280;15455;53.376;-6.262;2023-10-08T05:18:27;101951.09;;;11.59;100.00
28167;BME280;15455;53.376;-6.262;2023-10-08T05:21:32;101965.13;;;11.63;100.00
28167;BME280;15455;53.376;-6.262;2023-10-08T05:24:36;101973.00;;;11.68;100.00
28167;BME280;15455;53.376;-6.262;2023-10-08T05:27:26;101983.47;;;11.68;100.00
28167;BME280;15455;53.376;-6.262;2023-10-08T05:30:25;101968.63;;;11.65;100.00
28167;BME280;15455;53.376;-6.262;2023-10-08T05:33:17;101972.06;;;11.62;100.00
28167;BME280;15455;53.376;-6.262;2023-10-08T05:36:03;101975.53;;;11.58;100.00
28167;BME280;15455;53.376;-6.262;2023-10-08T05:38:55;101986.78;;;11.53;100.00
28167;BME280;15455;53.376;-6.262;2023-10-08T05:41:49;101983.19;;;11.46;100.00
28167;BME280;15455;53.376;-6.262;2023-10-08T05:44:51;101985.81;;;11.46;100.00
28167;BME280;15455;53.376;-6.262;2023-10-08T05:47:55;101984.03;;;11.45;100.00
28167;BME280;15455;53.376;-6.262;2023-10-08T05:51:07;101975.31;;;11.44;100.00
28167;BME280;15455;53.376;-6.262;2023-10-08T05:54:11;101971.72;;;11.38;100.00
28167;BME280;15455;53.376;-6.262;2023-10-08T05:57:10;101968.34;;;11.45;100.00
28167;BME280;15455;53.376;-6.262;2023-10-08T05:59:55;101965.84;;;11.51;100.00
28167;BME280;15455;53.376;-6.262;2023-10-08T06:02:42;101963.31;;;11.59;100.00
28167;BME280;15455;53.376;-6.262;2023-10-08T06:05:31;101947.66;;;11.60;100.00
28167;BME280;15455;53.376;-6.262;2023-10-08T06:08:18;101965.09;;;11.60;100.00
28167;BME280;15455;53.376;-6.262;2023-10-08T06:11:24;101965.97;;;11.62;100.00
28167;BME280;15455;53.376;-6.262;2023-10-08T06:14:24;101965.91;;;11.57;100.00
28167;BME280;15455;53.376;-6.262;2023-10-08T06:17:48;101971.09;;;11.53;100.00
28167;BME280;15455;53.376;-6.262;2023-10-08T06:20:50;101988.38;;;11.43;100.00
28167;BME280;15455;53.376;-6.262;2023-10-08T06:23:40;101983.09;;;11.38;100.00
28167;BME280;15455;53.376;-6.262;2023-10-08T06:26:27;101970.84;;;11.36;100.00
28167;BME280;15455;53.376;-6.262;2023-10-08T06:29:20;101968.22;;;11.34;100.00
28167;BME280;15455;53.376;-6.262;2023-10-08T06:32:13;101965.50;;;11.28;100.00
28167;BME280;15455;53.376;-6.262;2023-10-08T06:34:58;101962.81;;;11.23;100.00
28167;BME280;15455;53.376;-6.262;2023-10-08T06:37:45;101968.00;;;11.19;100.00
28167;BME280;15455;53.376;-6.262;2023-10-08T06:40:31;101974.00;;;11.13;100.00
28167;BME280;15455;53.376;-6.262;2023-10-08T06:43:22;101977.38;;;11.07;100.00
28167;BME280;15455;53.376;-6.262;2023-10-08T06:46:10;101958.25;;;11.08;100.00
28167;BME280;15455;53.376;-6.262;2023-10-08T06:48:58;101972.16;;;11.06;100.00
28167;BME280;15455;53.376;-6.262;2023-10-08T06:51:44;101974.78;;;11.07;100.00
28167;BME280;15455;53.376;-6.262;2023-10-08T06:54:29;101988.72;;;11.06;100.00
28167;BME280;15455;53.376;-6.262;2023-10-08T06:57:19;101993.94;;;11.06;100.00
28167;BME280;15455;53.376;-6.262;2023-10-08T07:00:07;101989.63;;;11.08;100.00
28167;BME280;15455;53.376;-6.262;2023-10-08T07:02:58;101983.59;;;11.12;100.00
28167;BME280;15455;53.376;-6.262;2023-10-08T07:05:48;101981.06;;;11.19;100.00
28167;BME280;15455;53.376;-6.262;2023-10-08T07:08:44;101994.19;;;11.25;100.00
28167;BME280;15455;53.376;-6.262;2023-10-08T07:11:38;101989.09;;;11.31;100.00
28167;BME280;15455;53.376;-6.262;2023-10-08T07:14:29;101981.34;;;11.39;100.00
28167;BME280;15455;53.376;-6.262;2023-10-08T07:17:16;101982.34;;;11.47;100.00
28167;BME280;15455;53.376;-6.262;2023-10-08T07:20:06;101998.09;;;11.53;100.00
28167;BME280;15455;53.376;-6.262;2023-10-08T07:22:59;102015.66;;;11.62;100.00
28167;BME280;15455;53.376;-6.262;2023-10-08T07:25:55;102011.41;;;11.70;100.00
28167;BME280;15455;53.376;-6.262;2023-10-08T07:28:56;102029.81;;;11.79;100.00
28167;BME280;15455;53.376;-6.262;2023-10-08T07:31:41;102018.59;;;11.88;100.00
28167;BME280;15455;53.376;-6.262;2023-10-08T07:34:27;102024.84;;;11.95;100.00
28167;BME280;15455;53.376;-6.262;2023-10-08T07:37:17;102017.97;;;12.03;100.00
28167;BME280;15455;53.376;-6.262;2023-10-08T07:40:02;102024.13;;;12.08;100.00
28167;BME280;15455;53.376;-6.262;2023-10-08T07:42:55;102021.56;;;12.14;100.00
28167;BME280;15455;53.376;-6.262;2023-10-08T07:45:41;102029.53;;;12.24;100.00
28167;BME280;15455;53.376;-6.262;2023-10-08T07:48:31;102030.44;;;12.29;100.00
28167;BME280;15455;53.376;-6.262;2023-10-08T07:51:17;102024.41;;;12.34;100.00
28167;BME280;15455;53.376;-6.262;2023-10-08T07:54:09;102011.34;;;12.39;100.00
28167;BME280;15455;53.376;-6.262;2023-10-08T07:57:02;102020.19;;;12.47;100.00
28167;BME280;15455;53.376;-6.262;2023-10-08T07:59:55;102023.72;;;12.53;100.00
28167;BME280;15455;53.376;-6.262;2023-10-08T08:02:55;102020.28;;;12.57;100.00
28167;BME280;15455;53.376;-6.262;2023-10-08T08:05:43;102015.09;;;12.61;100.00
28167;BME280;15455;53.376;-6.262;2023-10-08T08:08:29;102021.22;;;12.66;100.00
28167;BME280;15455;53.376;-6.262;2023-10-08T08:11:14;102031.78;;;12.71;100.00
28167;BME280;15455;53.376;-6.262;2023-10-08T08:14:03;102030.03;;;12.75;100.00
28167;BME280;15455;53.376;-6.262;2023-10-08T08:16:53;102044.94;;;12.80;100.00
28167;BME280;15455;53.376;-6.262;2023-10-08T08:19:51;102053.75;;;12.85;100.00
28167;BME280;15455;53.376;-6.262;2023-10-08T08:22:37;102051.16;;;12.93;100.00
28167;BME280;15455;53.376;-6.262;2023-10-08T08:25:25;102048.59;;;12.98;100.00
28167;BME280;15455;53.376;-6.262;2023-10-08T08:28:27;102048.63;;;13.06;100.00
28167;BME280;15455;53.376;-6.262;2023-10-08T08:31:14;102036.50;;;13.18;100.00
28167;BME280;15455;53.376;-6.262;2023-10-08T08:34:00;102020.88;;;13.32;100.00
28167;BME280;15455;53.376;-6.262;2023-10-08T08:36:46;102000.00;;;13.43;100.00
28167;BME280;15455;53.376;-6.262;2023-10-08T08:39:31;102003.56;;;13.58;100.00
28167;BME280;15455;53.376;-6.262;2023-10-08T08:42:22;101974.78;;;13.73;100.00
28167;BME280;15455;53.376;-6.262;2023-10-08T08:45:14;101981.00;;;13.95;100.00
28167;BME280;15455;53.376;-6.262;2023-10-08T08:48:04;101966.19;;;14.17;100.00
28167;BME280;15455;53.376;-6.262;2023-10-08T08:50:52;101958.34;;;14.47;100.00
28167;BME280;15455;53.376;-6.262;2023-10-08T08:53:40;101956.66;;;14.75;100.00
28167;BME280;15455;53.376;-6.262;2023-10-08T08:56:28;101959.25;;;15.03;100.00
28167;BME280;15455;53.376;-6.262;2023-10-08T08:59:14;101954.81;;;15.26;100.00
28167;BME280;15455;53.376;-6.262;2023-10-08T09:02:02;101953.00;;;15.50;100.00
28167;BME280;15455;53.376;-6.262;2023-10-08T09:04:49;101958.22;;;15.67;100.00
28167;BME280;15455;53.376;-6.262;2023-10-08T09:07:35;101949.38;;;15.84;100.00
28167;BME280;15455;53.376;-6.262;2023-10-08T09:10:20;101956.31;;;15.95;100.00
28167;BME280;15455;53.376;-6.262;2023-10-08T09:13:13;101961.56;;;16.06;100.00
28167;BME280;15455;53.376;-6.262;2023-10-08T09:16:11;101966.75;;;16.17;100.00
28167;BME280;15455;53.376;-6.262;2023-10-08T09:18:57;101957.94;;;16.21;100.00
28167;BME280;15455;53.376;-6.262;2023-10-08T09:21:42;101956.16;;;16.26;100.00
28167;BME280;15455;53.376;-6.262;2023-10-08T09:24:40;101957.00;;;16.28;100.00
28167;BME280;15455;53.376;-6.262;2023-10-08T09:27:26;101964.91;;;16.30;100.00
28167;BME280;15455;53.376;-6.262;2023-10-08T09:30:12;101963.13;;;16.30;100.00
28167;BME280;15455;53.376;-6.262;2023-10-08T09:33:05;101954.34;;;16.31;100.00
28167;BME280;15455;53.376;-6.262;2023-10-08T09:35:52;101959.63;;;16.31;100.00
28167;BME280;15455;53.376;-6.262;2023-10-08T09:38:44;101962.28;;;16.30;100.00
28167;BME280;15455;53.376;-6.262;2023-10-08T09:41:31;101970.16;;;16.31;100.00
28167;BME280;15455;53.376;-6.262;2023-10-08T09:44:21;101964.88;;;16.35;100.00
28167;BME280;15455;53.376;-6.262;2023-10-08T09:47:09;101959.53;;;16.45;100.00
28167;BME280;15455;53.376;-6.262;2023-10-08T09:53:09;101961.09;;;16.68;100.00
28167;BME280;15455;53.376;-6.262;2023-10-08T09:56:15;101950.47;;;16.79;100.00
28167;BME280;15455;53.376;-6.262;2023-10-08T09:59:01;101936.34;;;16.89;100.00
28167;BME280;15455;53.376;-6.262;2023-10-08T10:01:47;101905.47;;;16.99;100.00
28167;BME280;15455;53.376;-6.262;2023-10-08T10:04:34;101906.28;;;17.06;100.00
28167;BME280;15455;53.376;-6.262;2023-10-08T10:07:20;101896.50;;;17.15;100.00
28167;BME280;15455;53.376;-6.262;2023-10-08T10:10:25;101865.66;;;17.22;100.00
28167;BME280;15455;53.376;-6.262;2023-10-08T10:13:16;101869.06;;;17.32;100.00
28167;BME280;15455;53.376;-6.262;2023-10-08T10:16:04;101863.59;;;17.44;100.00
28167;BME280;15455;53.376;-6.262;2023-10-08T10:18:57;101857.13;;;17.68;100.00
28167;BME280;15455;53.376;-6.262;2023-10-08T10:21:43;101862.97;;;17.91;100.00
28167;BME280;15455;53.376;-6.262;2023-10-08T10:24:33;101859.25;;;18.05;100.00
28167;BME280;15455;53.376;-6.262;2023-10-08T10:27:20;101862.56;;;18.17;100.00
28167;BME280;15455;53.376;-6.262;2023-10-08T10:30:07;101853.63;;;18.27;100.00
28167;BME280;15455;53.376;-6.262;2023-10-08T10:33:00;101849.88;;;18.39;100.00
28167;BME280;15455;53.376;-6.262;2023-10-08T10:35:52;101847.91;;;18.52;100.00
28167;BME280;15455;53.376;-6.262;2023-10-08T10:38:38;101852.19;;;18.57;100.00
28167;BME280;15455;53.376;-6.262;2023-10-08T10:41:28;101834.44;;;18.64;100.00
28167;BME280;15455;53.376;-6.262;2023-10-08T10:44:16;101838.88;;;18.64;100.00
28167;BME280;15455;53.376;-6.262;2023-10-08T10:47:03;101830.16;;;18.57;100.00
28167;BME280;15455;53.376;-6.262;2023-10-08T10:50:01;101835.53;;;18.52;100.00
28167;BME280;15455;53.376;-6.262;2023-10-08T10:52:46;101834.72;;;18.47;100.00
28167;BME280;15455;53.376;-6.262;2023-10-08T10:55:38;101836.63;;;18.40;100.00
28167;BME280;15455;53.376;-6.262;2023-10-08T10:58:33;101830.56;;;18.34;100.00
28167;BME280;15455;53.376;-6.262;2023-10-08T11:01:27;101832.47;;;18.26;100.00
28167;BME280;15455;53.376;-6.262;2023-10-08T11:04:15;101828.25;;;18.15;100.00
28167;BME280;15455;53.376;-6.262;2023-10-08T11:07:02;101831.06;;;18.06;100.00
28167;BME280;15455;53.376;-6.262;2023-10-08T11:09:51;101825.84;;;18.01;100.00
28167;BME280;15455;53.376;-6.262;2023-10-08T11:12:40;101832.16;;;17.90;100.00
28167;BME280;15455;53.376;-6.262;2023-10-08T11:15:32;101838.44;;;17.82;100.00
28167;BME280;15455;53.376;-6.262;2023-10-08T11:18:26;101853.41;;;17.80;100.00
28167;BME280;15455;53.376;-6.262;2023-10-08T11:21:16;101841.13;;;17.78;100.00
28167;BME280;15455;53.376;-6.262;2023-10-08T11:24:03;101841.09;;;17.79;100.00
28167;BME280;15455;53.376;-6.262;2023-10-08T11:26:55;101847.25;;;17.81;100.00
28167;BME280;15455;53.376;-6.262;2023-10-08T11:29:52;101862.13;;;17.88;100.00
28167;BME280;15455;53.376;-6.262;2023-10-08T11:32:43;101884.94;;;17.96;100.00
28167;BME280;15455;53.376;-6.262;2023-10-08T11:35:33;101920.91;;;18.03;100.00
28167;BME280;15455;53.376;-6.262;2023-10-08T11:38:19;101941.22;;;17.99;100.00
28167;BME280;15455;53.376;-6.262;2023-10-08T11:41:12;101957.06;;;17.99;100.00
28167;BME280;15455;53.376;-6.262;2023-10-08T11:44:07;101952.66;;;18.01;100.00
28167;BME280;15455;53.376;-6.262;2023-10-08T11:46:59;101971.88;;;18.10;100.00
28167;BME280;15455;53.376;-6.262;2023-10-08T11:49:57;101935.69;;;18.16;100.00
28167;BME280;15455;53.376;-6.262;2023-10-08T11:53:02;101936.34;;;18.31;100.00
28167;BME280;15455;53.376;-6.262;2023-10-08T11:55:48;101930.78;;;18.49;100.00
28167;BME280;15455;53.376;-6.262;2023-10-08T11:58:34;101935.69;;;18.71;100.00
28167;BME280;15455;53.376;-6.262;2023-10-08T12:01:25;101938.94;;;18.88;100.00
28167;BME280;15455;53.376;-6.262;2023-10-08T12:04:12;101928.09;;;19.04;100.00
28167;BME280;15455;53.376;-6.262;2023-10-08T12:07:04;101930.34;;;19.24;100.00
28167;BME280;15455;53.376;-6.262;2023-10-08T12:09:52;101926.53;;;19.37;100.00
28167;BME280;15455;53.376;-6.262;2023-10-08T12:12:39;101919.31;;;19.44;100.00
28167;BME280;15455;53.376;-6.262;2023-10-08T12:15:26;101921.84;;;19.52;100.00
28167;BME280;15455;53.376;-6.262;2023-10-08T12:18:24;101902.19;;;19.62;100.00
28167;BME280;15455;53.376;-6.262;2023-10-08T12:21:16;101901.00;;;19.75;100.00
28167;BME280;15455;53.376;-6.262;2023-10-08T12:24:03;101902.56;;;19.86;100.00
28167;BME280;15455;53.376;-6.262;2023-10-08T12:26:50;101894.34;;;19.98;100.00
28167;BME280;15455;53.376;-6.262;2023-10-08T12:29:37;101890.66;;;20.05;100.00
28167;BME280;15455;53.376;-6.262;2023-10-08T12:32:23;101901.94;;;20.13;100.00
28167;BME280;15455;53.376;-6.262;2023-10-08T12:35:11;101898.16;;;20.24;100.00
28167;BME280;15455;53.376;-6.262;2023-10-08T12:38:00;101894.41;;;20.33;100.00
28167;BME280;15455;53.376;-6.262;2023-10-08T12:40:45;101898.53;;;20.44;100.00
28167;BME280;15455;53.376;-6.262;2023-10-08T12:43:42;101892.50;;;20.38;100.00
28167;BME280;15455;53.376;-6.262;2023-10-08T12:46:31;101891.03;;;20.26;100.00
28167;BME280;15455;53.376;-6.262;2023-10-08T12:49:18;101901.81;;;20.18;100.00
28167;BME280;15455;53.376;-6.262;2023-10-08T12:52:06;101899.13;;;20.20;100.00
28167;BME280;15455;53.376;-6.262;2023-10-08T12:54:54;101889.22;;;20.28;100.00
28167;BME280;15455;53.376;-6.262;2023-10-08T12:57:41;101894.25;;;20.39;100.00
28167;BME280;15455;53.376;-6.262;2023-10-08T13:00:27;101886.28;;;20.39;100.00
28167;BME280;15455;53.376;-6.262;2023-10-08T13:03:13;101888.97;;;20.37;100.00
28167;BME280;15455;53.376;-6.262;2023-10-08T13:06:16;101894.28;;;20.37;100.00
28167;BME280;15455;53.376;-6.262;2023-10-08T13:09:22;101887.78;;;20.49;100.00
28167;BME280;15455;53.376;-6.262;2023-10-08T13:12:07;101886.34;;;20.72;100.00
28167;BME280;15455;53.376;-6.262;2023-10-08T13:14:55;101873.28;;;20.97;100.00
28167;BME280;15455;53.376;-6.262;2023-10-08T13:17:41;101876.25;;;21.17;100.00
28167;BME280;15455;53.376;-6.262;2023-10-08T13:20:31;101873.66;;;21.14;100.00
28167;BME280;15455;53.376;-6.262;2023-10-08T13:23:20;101875.69;;;21.06;100.00
28167;BME280;15455;53.376;-6.262;2023-10-08T13:26:09;101872.28;;;21.01;100.00
28167;BME280;15455;53.376;-6.262;2023-10-08T13:28:55;101870.56;;;20.98;100.00
28167;BME280;15455;53.376;-6.262;2023-10-08T13:31:40;101870.81;;;20.91;100.00
28167;BME280;15455;53.376;-6.262;2023-10-08T13:34:26;101870.81;;;20.91;100.00
28167;BME280;15455;53.376;-6.262;2023-10-08T13:37:11;101867.16;;;20.95;100.00
28167;BME280;15455;53.376;-6.262;2023-10-08T13:39:59;101868.63;;;21.05;100.00
28167;BME280;15455;53.376;-6.262;2023-10-08T13:42:46;101857.09;;;21.06;100.00
28167;BME280;15455;53.376;-6.262;2023-10-08T13:45:33;101847.34;;;21.07;100.00
28167;BME280;15455;53.376;-6.262;2023-10-08T13:48:22;101844.78;;;21.04;100.00
28167;BME280;15455;53.376;-6.262;2023-10-08T13:51:10;101849.06;;;21.09;100.00
28167;BME280;15455;53.376;-6.262;2023-10-08T13:54:05;101840.03;;;21.15;100.00
28167;BME280;15455;53.376;-6.262;2023-10-08T13:56:58;101831.69;;;21.27;100.00
28167;BME280;15455;53.376;-6.262;2023-10-08T13:59:47;101833.03;;;21.42;100.00
28167;BME280;15455;53.376;-6.262;2023-10-08T14:02:33;101823.06;;;21.49;100.00
28167;BME280;15455;53.376;-6.262;2023-10-08T14:05:21;101822.16;;;21.50;100.00
28167;BME280;15455;53.376;-6.262;2023-10-08T14:08:09;101819.50;;;21.51;100.00
28167;BME280;15455;53.376;-6.262;2023-10-08T14:11:01;101825.66;;;21.54;100.00
28167;BME280;15455;53.376;-6.262;2023-10-08T14:13:53;101830.19;;;21.48;100.00
28167;BME280;15455;53.376;-6.262;2023-10-08T14:16:39;101826.03;;;21.40;100.00
28167;BME280;15455;53.376;-6.262;2023-10-08T14:19:28;101823.56;;;21.33;100.00
28167;BME280;15455;53.376;-6.262;2023-10-08T14:22:21;101829.75;;;21.34;100.00
28167;BME280;15455;53.376;-6.262;2023-10-08T14:25:08;101824.47;;;21.32;100.00
28167;BME280;15455;53.376;-6.262;2023-10-08T14:28:02;101816.66;;;21.28;100.00
28167;BME280;15455;53.376;-6.262;2023-10-08T14:30:52;101817.66;;;21.24;100.00